Time;durP1;ratioP1;P1;durP2;ratioP2;P2;SDS_P1;SDS_P2;PMS_P1;PMS_P2;Temp;Humidity;BMP_temperature;BMP_pressure;BME280_temperature;BME280_humidity;BME280_pressure;Samples;Min_cycle;Max_cycle;Signal;HPM_P1;HPM_P2
2023/08/22 00:02:44;;;;;;;6.40;4.12;;;16.30;99.90;;;;;;7290630;32;20254;-56
2023/08/22 00:06:45;;;;;;;5.45;4.45;;;16.20;99.90;;;;;;7294362;32;20207;-55
2023/08/22 00:10:47;;;;;;;10.13;4.60;;;16.10;99.90;;;;;;7292823;32;20088;-55
2023/08/22 00:14:50;;;;;;;13.60;5.03;;;16.10;99.90;;;;;;7287668;32;20226;-56
2023/08/22 00:18:52;;;;;;;11.30;5.07;;;15.90;99.90;;;;;;7292435;32;20313;-56
2023/08/22 00:22:53;;;;;;;8.18;4.45;;;15.90;99.90;;;;;;7294329;32;20128;-56
2023/08/22 00:26:55;;;;;;;4.97;4.12;;;15.90;99.90;;;;;;7295686;32;20446;-56
2023/08/22 00:30:57;;;;;;;7.32;4.82;;;15.90;99.90;;;;;;7292288;32;20356;-57
2023/08/22 00:35:00;;;;;;;9.25;4.95;;;15.80;99.90;;;;;;7295286;32;20223;-56
2023/08/22 00:39:02;;;;;;;8.88;5.15;;;15.80;99.90;;;;;;7279176;32;20096;-56
2023/08/22 00:43:03;;;;;;;7.30;4.37;;;15.80;99.90;;;;;;7290871;32;20519;-56
2023/08/22 00:47:06;;;;;;;8.30;4.80;;;15.80;99.90;;;;;;7294195;32;20112;-56
2023/08/22 00:51:07;;;;;;;6.37;4.28;;;15.70;99.90;;;;;;7291522;32;20753;-57
2023/08/22 00:55:09;;;;;;;7.35;4.15;;;15.70;99.90;;;;;;7290929;32;20104;-56
2023/08/22 00:59:11;;;;;;;11.10;4.43;;;15.60;99.90;;;;;;7291951;32;20676;-56
2023/08/22 01:03:13;;;;;;;9.40;4.93;;;15.60;99.90;;;;;;7289617;32;20103;-56
2023/08/22 01:07:30;;;;;;;7.25;4.07;;;15.60;99.90;;;;;;7287672;32;20266;-57
2023/08/22 01:11:37;;;;;;;9.20;4.35;;;15.50;99.90;;;;;;7295634;32;20124;-56
2023/08/22 01:15:41;;;;;;;11.12;4.60;;;15.50;99.90;;;;;;7296684;32;20122;-56
2023/08/22 01:19:44;;;;;;;8.27;4.03;;;15.50;99.90;;;;;;7296578;32;20486;-57
2023/08/22 01:23:46;;;;;;;8.10;4.18;;;15.40;99.90;;;;;;7289650;32;20197;-56
2023/08/22 01:28:11;;;;;;;9.40;4.43;;;15.40;99.90;;;;;;7298999;32;20413;-56
2023/08/22 01:32:23;;;;;;;12.90;4.97;;;15.40;99.90;;;;;;7296089;32;20637;-58
2023/08/22 01:36:25;;;;;;;7.18;4.50;;;15.40;99.90;;;;;;7289241;32;20168;-57
2023/08/22 01:40:29;;;;;;;6.82;4.50;;;15.40;99.90;;;;;;7298298;32;20195;-56
2023/08/22 01:44:31;;;;;;;6.15;4.20;;;15.30;99.90;;;;;;7300871;32;20099;-55
2023/08/22 01:48:33;;;;;;;8.65;4.75;;;15.30;99.90;;;;;;7291845;32;20112;-56
2023/08/22 01:52:34;;;;;;;8.80;5.43;;;15.50;99.90;;;;;;7303415;32;20181;-56
2023/08/22 01:56:36;;;;;;;10.75;4.70;;;15.50;99.90;;;;;;7298549;32;20216;-56
2023/08/22 02:00:41;;;;;;;7.93;4.32;;;15.50;99.90;;;;;;7299271;32;20203;-56
2023/08/22 02:04:42;;;;;;;9.27;4.40;;;15.50;99.90;;;;;;7299699;32;22030;-56
2023/08/22 02:08:44;;;;;;;11.27;4.82;;;15.60;99.90;;;;;;7297209;32;20550;-56
2023/08/22 02:12:46;;;;;;;8.00;4.80;;;15.50;99.90;;;;;;7299021;32;20191;-56
2023/08/22 02:16:48;;;;;;;9.13;5.05;;;15.50;99.90;;;;;;7293102;32;20187;-56
2023/08/22 02:20:54;;;;;;;11.40;4.55;;;15.50;99.90;;;;;;7296762;32;20100;-56
2023/08/22 02:24:55;;;;;;;8.68;4.65;;;15.50;99.90;;;;;;7297729;32;20194;-56
2023/08/22 02:28:57;;;;;;;11.02;4.95;;;15.50;99.90;;;;;;7296373;32;20118;-56
2023/08/22 02:32:59;;;;;;;8.73;4.55;;;15.40;99.90;;;;;;7289600;32;20100;-56
2023/08/22 02:37:02;;;;;;;8.18;4.40;;;15.40;99.90;;;;;;7280382;32;20632;-56
2023/08/22 02:41:04;;;;;;;7.03;4.68;;;15.40;99.90;;;;;;7291153;32;20158;-57
2023/08/22 02:45:06;;;;;;;6.68;4.20;;;15.40;99.90;;;;;;7295720;32;20159;-55
2023/08/22 02:49:08;;;;;;;6.60;4.40;;;15.40;99.90;;;;;;7288950;32;20190;-56
2023/08/22 02:53:14;;;;;;;10.40;4.47;;;15.40;99.90;;;;;;7291530;32;20108;-56
2023/08/22 02:57:16;;;;;;;8.88;4.55;;;15.30;99.90;;;;;;7296176;32;20597;-55
2023/08/22 03:01:17;;;;;;;5.35;3.70;;;15.40;99.90;;;;;;7295884;32;20230;-55
2023/08/22 03:05:19;;;;;;;10.95;4.75;;;15.30;99.90;;;;;;7293782;32;20203;-56
2023/08/22 03:09:21;;;;;;;9.80;4.70;;;15.40;99.90;;;;;;7290266;32;20551;-56
2023/08/22 03:13:23;;;;;;;5.75;3.80;;;15.30;99.90;;;;;;7292069;32;20116;-56
2023/08/22 03:17:25;;;;;;;7.37;4.55;;;15.30;99.90;;;;;;7293419;32;20225;-56
2023/08/22 03:21:27;;;;;;;6.95;3.85;;;15.30;99.90;;;;;;7289839;32;20183;-56
2023/08/22 03:25:29;;;;;;;13.02;4.12;;;15.30;99.90;;;;;;7295096;32;20195;-56
2023/08/22 03:29:30;;;;;;;9.88;3.92;;;15.20;99.90;;;;;;7290641;32;20105;-56
2023/08/22 03:33:33;;;;;;;7.12;4.10;;;15.30;99.90;;;;;;7290951;32;20123;-56
2023/08/22 03:37:35;;;;;;;10.85;3.92;;;15.30;99.90;;;;;;7288203;32;20179;-56
2023/08/22 03:41:37;;;;;;;6.80;3.97;;;15.30;99.90;;;;;;7289711;32;20301;-56
2023/08/22 03:45:38;;;;;;;12.07;5.10;;;15.30;99.90;;;;;;7293792;32;20210;-56
2023/08/22 03:49:40;;;;;;;7.65;3.92;;;15.30;99.90;;;;;;7289281;32;20534;-56
2023/08/22 03:53:42;;;;;;;5.53;3.75;;;15.30;99.90;;;;;;7287976;32;20103;-55
2023/08/22 03:57:44;;;;;;;6.12;3.87;;;15.20;99.90;;;;;;7286726;32;20119;-58
2023/08/22 04:01:46;;;;;;;7.93;4.22;;;15.20;99.90;;;;;;7287908;32;20143;-56
2023/08/22 04:05:47;;;;;;;6.75;4.20;;;15.20;99.90;;;;;;7288050;32;20206;-57
2023/08/22 04:09:49;;;;;;;5.87;3.85;;;15.10;99.90;;;;;;7287373;32;20226;-56
2023/08/22 04:13:51;;;;;;;10.23;4.45;;;15.20;99.90;;;;;;7290780;32;20207;-56
2023/08/22 04:17:52;;;;;;;5.65;4.03;;;15.20;99.90;;;;;;7284740;32;20166;-56
2023/08/22 04:21:54;;;;;;;8.85;4.07;;;15.10;99.90;;;;;;7295061;32;20647;-57
2023/08/22 04:25:56;;;;;;;5.70;4.05;;;15.20;99.90;;;;;;7294055;32;20247;-56
2023/08/22 04:29:59;;;;;;;7.90;3.55;;;15.10;99.90;;;;;;7289267;32;20235;-57
2023/08/22 04:34:02;;;;;;;9.20;3.90;;;15.10;99.90;;;;;;7290083;32;20426;-56
2023/08/22 04:38:04;;;;;;;12.00;3.90;;;15.00;99.90;;;;;;7291880;32;21174;-57
2023/08/22 04:42:06;;;;;;;8.45;3.80;;;15.00;99.90;;;;;;7286504;32;20172;-55
2023/08/22 04:46:08;;;;;;;10.20;4.00;;;15.00;99.90;;;;;;7289451;32;20188;-57
2023/08/22 04:50:09;;;;;;;6.25;3.90;;;15.00;99.90;;;;;;7287108;32;20270;-57
2023/08/22 04:54:11;;;;;;;7.18;4.20;;;15.00;99.90;;;;;;7293264;32;20185;-57
2023/08/22 04:58:13;;;;;;;6.25;3.42;;;15.10;99.90;;;;;;7288909;32;20112;-57
2023/08/22 05:02:15;;;;;;;8.05;4.43;;;15.10;99.90;;;;;;7292569;32;20195;-56
2023/08/22 05:06:16;;;;;;;9.13;3.87;;;15.10;99.90;;;;;;7285983;32;20525;-57
2023/08/22 05:10:18;;;;;;;8.73;3.30;;;15.10;99.90;;;;;;7287922;32;20163;-56
2023/08/22 05:14:20;;;;;;;10.20;4.22;;;15.10;99.90;;;;;;7288078;32;20225;-58
2023/08/22 05:18:22;;;;;;;6.75;3.50;;;15.10;99.90;;;;;;7279813;32;20564;-58
2023/08/22 05:22:24;;;;;;;7.30;3.35;;;15.00;99.90;;;;;;7292365;32;20226;-59
2023/08/22 05:26:26;;;;;;;7.50;3.87;;;15.10;99.90;;;;;;7286085;32;20128;-57
2023/08/22 05:30:28;;;;;;;9.60;4.22;;;15.10;99.90;;;;;;7292260;32;20519;-57
2023/08/22 05:34:29;;;;;;;9.70;3.92;;;15.10;99.90;;;;;;7289456;32;20680;-57
2023/08/22 05:38:32;;;;;;;8.20;3.58;;;15.20;99.90;;;;;;7288085;32;20169;-57
2023/08/22 05:42:33;;;;;;;5.57;3.53;;;15.30;99.90;;;;;;7283572;32;20179;-57
2023/08/22 05:46:35;;;;;;;11.77;4.22;;;15.40;99.90;;;;;;7291219;32;20104;-56
2023/08/22 05:50:37;;;;;;;7.03;5.45;;;15.50;99.90;;;;;;7286973;32;20212;-56
2023/08/22 05:54:39;;;;;;;9.25;3.95;;;15.60;99.90;;;;;;7286010;32;20203;-56
2023/08/22 05:58:41;;;;;;;7.50;4.00;;;15.70;99.90;;;;;;7295355;32;20521;-56
2023/08/22 06:02:43;;;;;;;6.10;3.87;;;15.70;99.90;;;;;;7293449;32;20126;-56
2023/08/22 06:06:45;;;;;;;5.65;3.62;;;15.80;99.90;;;;;;7283650;32;20237;-56
2023/08/22 06:10:46;;;;;;;6.87;3.62;;;15.90;99.90;;;;;;7279695;32;20120;-56
2023/08/22 06:14:48;;;;;;;7.20;4.03;;;15.90;99.90;;;;;;7295449;32;20135;-56
2023/08/22 06:18:50;;;;;;;6.10;3.70;;;15.90;99.90;;;;;;7294332;32;20191;-56
2023/08/22 06:22:52;;;;;;;6.68;3.45;;;16.00;99.90;;;;;;7286917;32;20176;-56
2023/08/22 06:26:53;;;;;;;9.43;3.87;;;16.00;99.90;;;;;;7290905;32;20300;-56
2023/08/22 06:31:03;;;;;;;5.03;3.65;;;16.10;99.90;;;;;;7294619;32;20165;-56
2023/08/22 06:35:07;;;;;;;5.57;4.00;;;16.20;99.90;;;;;;7289835;32;20115;-56
2023/08/22 06:39:09;;;;;;;7.07;3.58;;;16.30;99.90;;;;;;7294294;32;20371;-56
2023/08/22 06:43:10;;;;;;;6.07;4.53;;;16.40;99.90;;;;;;7288994;32;20122;-56
2023/08/22 06:47:12;;;;;;;8.27;4.87;;;16.50;99.90;;;;;;7292621;32;20199;-56
2023/08/22 06:51:14;;;;;;;9.45;5.30;;;16.70;99.90;;;;;;7286742;32;20296;-56
2023/08/22 06:55:16;;;;;;;13.00;5.82;;;16.90;99.90;;;;;;7285270;32;20131;-56
2023/08/22 06:59:17;;;;;;;12.32;5.55;;;17.10;99.90;;;;;;7296666;32;20108;-56
2023/08/22 07:03:19;;;;;;;10.15;4.80;;;17.30;99.90;;;;;;7294108;32;20180;-56
2023/08/22 07:07:21;;;;;;;10.85;5.97;;;17.60;99.90;;;;;;7291785;32;20127;-56
2023/08/22 07:11:23;;;;;;;10.88;5.70;;;17.90;99.90;;;;;;7295319;32;20147;-56
2023/08/22 07:15:24;;;;;;;9.55;4.57;;;18.20;99.90;;;;;;7288857;32;20257;-56
2023/08/22 07:19:26;;;;;;;7.32;4.10;;;18.50;99.90;;;;;;7292836;32;20302;-56
2023/08/22 07:23:42;;;;;;;12.70;5.70;;;18.70;99.90;;;;;;7290429;32;20245;-56
2023/08/22 07:27:44;;;;;;;9.32;4.57;;;19.00;99.90;;;;;;7289197;32;20182;-56
2023/08/22 07:31:46;;;;;;;13.45;5.72;;;19.20;99.90;;;;;;7297957;32;20116;-56
2023/08/22 07:35:47;;;;;;;8.95;4.87;;;19.30;99.90;;;;;;7296513;32;20116;-57
2023/08/22 07:39:49;;;;;;;9.38;4.80;;;19.60;99.90;;;;;;7292988;32;20123;-57
2023/08/22 07:43:51;;;;;;;7.70;4.15;;;19.80;99.90;;;;;;7284786;32;20296;-56
2023/08/22 07:47:53;;;;;;;9.27;3.95;;;20.00;99.90;;;;;;7294828;32;20506;-57
2023/08/22 07:51:55;;;;;;;9.20;3.97;;;20.40;99.90;;;;;;7292452;32;20131;-56
2023/08/22 07:55:57;;;;;;;7.05;3.65;;;20.40;99.90;;;;;;7292819;32;20257;-57
2023/08/22 07:59:58;;;;;;;9.50;3.72;;;20.50;99.90;;;;;;7291183;32;20734;-56
2023/08/22 08:04:00;;;;;;;8.02;3.45;;;20.80;99.90;;;;;;7293042;32;20586;-57
2023/08/22 08:08:03;;;;;;;10.15;4.30;;;21.00;99.90;;;;;;7296599;32;20453;-58
2023/08/22 08:12:05;;;;;;;7.43;3.60;;;21.20;99.90;;;;;;7294755;32;20173;-57
2023/08/22 08:16:07;;;;;;;8.98;3.90;;;21.40;99.90;;;;;;7288298;32;20246;-57
2023/08/22 08:20:10;;;;;;;8.15;2.92;;;21.60;99.90;;;;;;7291943;32;20104;-58
2023/08/22 08:24:15;;;;;;;4.55;2.08;;;21.70;99.90;;;;;;7291132;32;20131;-58
2023/08/22 08:28:16;;;;;;;8.23;3.58;;;21.90;99.90;;;;;;7292579;32;20124;-57
2023/08/22 08:32:18;;;;;;;8.07;3.37;;;22.10;99.90;;;;;;7293687;32;20169;-57
2023/08/22 08:36:20;;;;;;;10.23;4.15;;;22.30;99.90;;;;;;7285825;32;20211;-57
2023/08/22 08:40:22;;;;;;;9.20;3.25;;;23.00;99.90;;;;;;7287278;32;20169;-57
2023/08/22 08:44:26;;;;;;;8.20;3.20;;;24.10;99.90;;;;;;7292724;32;20622;-57
2023/08/22 08:48:29;;;;;;;9.98;3.72;;;24.70;99.90;;;;;;7293326;32;20134;-57
2023/08/22 08:52:31;;;;;;;7.50;3.33;;;25.30;99.90;;;;;;7293514;32;20155;-57
2023/08/22 08:56:33;;;;;;;10.85;4.70;;;25.80;99.90;;;;;;7294803;32;20112;-57
2023/08/22 09:00:37;;;;;;;12.32;5.07;;;25.90;99.90;;;;;;7289791;32;20541;-57
2023/08/22 09:04:39;;;;;;;18.80;6.35;;;25.80;99.90;;;;;;7293419;32;20118;-57
2023/08/22 09:09:03;;;;;;;14.30;5.80;;;26.00;99.90;;;;;;7291320;32;20226;-57
2023/08/22 09:13:05;;;;;;;16.08;5.90;;;26.10;99.90;;;;;;7289202;32;20611;-56
2023/08/22 09:17:07;;;;;;;9.88;5.57;;;26.20;99.90;;;;;;7293149;32;20169;-57
2023/08/22 09:21:10;;;;;;;14.93;6.37;;;26.00;99.90;;;;;;7287992;32;20178;-57
2023/08/22 09:25:12;;;;;;;19.25;7.25;;;26.00;99.90;;;;;;7287921;32;20259;-56
2023/08/22 09:29:13;;;;;;;19.73;7.40;;;25.90;99.90;;;;;;7291074;32;20182;-56
2023/08/22 09:33:16;;;;;;;15.18;6.70;;;25.70;99.90;;;;;;7296424;32;20791;-56
2023/08/22 09:37:37;;;;;;;14.77;6.20;;;25.80;99.90;;;;;;7298089;32;20112;-57
2023/08/22 09:41:39;;;;;;;17.35;6.80;;;26.20;99.90;;;;;;7296644;32;20108;-57
2023/08/22 09:45:42;;;;;;;9.13;4.20;;;26.40;99.90;;;;;;7294362;32;20226;-56
2023/08/22 09:49:48;;;;;;;8.63;3.12;;;26.10;99.90;;;;;;7294363;32;20708;-56
2023/08/22 09:53:52;;;;;;;7.00;2.97;;;25.60;99.90;;;;;;7297453;32;20191;-57
2023/08/22 09:57:55;;;;;;;8.50;3.83;;;25.60;99.90;;;;;;7292987;32;20234;-57
2023/08/22 10:01:58;;;;;;;9.40;3.50;;;25.60;99.90;;;;;;7295233;32;20227;-57
2023/08/22 10:06:01;;;;;;;7.90;2.90;;;25.30;99.90;;;;;;7288300;32;20103;-57
2023/08/22 10:10:04;;;;;;;7.53;2.62;;;25.20;99.90;;;;;;7294912;32;20134;-56
2023/08/22 10:14:12;;;;;;;8.48;2.72;;;25.10;99.90;;;;;;7290927;32;20112;-56
2023/08/22 10:18:14;;;;;;;8.45;2.97;;;25.10;99.90;;;;;;7285770;32;20115;-58
2023/08/22 10:22:16;;;;;;;7.57;2.87;;;25.00;99.90;;;;;;7290971;32;20113;-57
2023/08/22 10:26:20;;;;;;;5.22;2.65;;;24.90;99.90;;;;;;7291272;32;20161;-58
2023/08/22 10:30:23;;;;;;;7.28;3.65;;;24.80;99.90;;;;;;7286120;32;20835;-57
2023/08/22 10:34:25;;;;;;;9.35;4.00;;;24.70;99.90;;;;;;7290345;32;20250;-57
2023/08/22 10:38:26;;;;;;;6.10;3.05;;;24.60;99.90;;;;;;7289105;32;20524;-56
2023/08/22 10:42:28;;;;;;;9.10;3.92;;;24.60;99.90;;;;;;7296729;32;20613;-56
2023/08/22 10:47:00;;;;;;;13.45;5.65;;;24.60;99.90;;;;;;7291721;32;20137;-56
2023/08/22 10:51:06;;;;;;;14.07;4.35;;;24.60;99.90;;;;;;7292071;32;20219;-56
2023/08/22 10:55:13;;;;;;;19.92;6.37;;;24.90;99.90;;;;;;7284528;32;20187;-57
2023/08/22 10:59:15;;;;;;;11.15;4.68;;;25.10;99.90;;;;;;7287804;32;20537;-56
2023/08/22 11:03:17;;;;;;;10.25;3.35;;;25.00;99.90;;;;;;7288208;32;20174;-57
2023/08/22 11:07:19;;;;;;;8.43;3.33;;;25.00;99.90;;;;;;7290499;32;20120;-57
2023/08/22 11:11:20;;;;;;;7.20;2.33;;;25.00;99.90;;;;;;7298163;32;20577;-57
2023/08/22 11:15:22;;;;;;;6.45;2.08;;;24.90;99.90;;;;;;7289522;32;20202;-57
2023/08/22 11:19:25;;;;;;;5.25;2.17;;;24.90;99.90;;;;;;7296436;32;20243;-57
2023/08/22 11:23:29;;;;;;;9.18;2.70;;;25.10;99.90;;;;;;7292296;32;20227;-56
2023/08/22 11:27:31;;;;;;;9.23;3.65;;;25.10;99.90;;;;;;7287355;32;20242;-57
2023/08/22 11:31:36;;;;;;;5.97;2.60;;;25.20;99.90;;;;;;7283619;32;20473;-56
2023/08/22 11:35:39;;;;;;;6.68;2.53;;;25.10;99.90;;;;;;7296629;32;20234;-58
2023/08/22 11:39:46;;;;;;;5.72;1.92;;;25.20;99.90;;;;;;7293911;32;20912;-57
2023/08/22 11:43:51;;;;;;;5.55;2.85;;;25.40;99.90;;;;;;7285348;32;20175;-57
2023/08/22 11:47:55;;;;;;;6.70;1.92;;;25.60;99.90;;;;;;7286301;32;20693;-57
2023/08/22 11:51:57;;;;;;;6.03;1.80;;;25.60;99.90;;;;;;7288339;32;20171;-57
2023/08/22 11:55:59;;;;;;;6.57;2.30;;;25.80;99.90;;;;;;7287748;32;20221;-57
2023/08/22 12:00:08;;;;;;;8.77;1.90;;;25.70;99.90;;;;;;7289979;32;20700;-56
2023/08/22 12:04:10;;;;;;;5.10;1.65;;;25.50;99.90;;;;;;7288600;32;20239;-57
2023/08/22 12:08:12;;;;;;;3.90;1.73;;;25.70;99.90;;;;;;7291892;32;20569;-57
2023/08/22 12:12:14;;;;;;;6.20;1.80;;;25.90;99.90;;;;;;7288189;32;20137;-57
2023/08/22 12:16:16;;;;;;;5.22;1.40;;;26.00;99.90;;;;;;7289429;32;20192;-57
2023/08/22 12:20:17;;;;;;;5.85;1.98;;;25.70;99.90;;;;;;7289347;32;20103;-57
2023/08/22 12:24:19;;;;;;;4.57;1.92;;;25.30;99.90;;;;;;7290281;32;20227;-57
2023/08/22 12:28:23;;;;;;;4.10;1.60;;;25.10;99.90;;;;;;7291885;32;20128;-54
2023/08/22 12:32:25;;;;;;;2.90;1.12;;;25.40;99.90;;;;;;7290797;32;20179;-57
2023/08/22 12:36:27;;;;;;;6.18;1.65;;;25.80;99.90;;;;;;7290994;32;20100;-54
2023/08/22 12:40:29;;;;;;;3.90;1.87;;;26.00;99.90;;;;;;7279724;32;20243;-57
2023/08/22 12:44:31;;;;;;;4.85;1.77;;;26.10;99.90;;;;;;7292132;32;20143;-56
2023/08/22 12:48:36;;;;;;;3.83;1.50;;;26.20;99.90;;;;;;7292689;32;20526;-57
2023/08/22 12:52:38;;;;;;;3.37;1.20;;;26.60;99.90;;;;;;7284262;32;20222;-57
2023/08/22 12:56:40;;;;;;;6.40;1.30;;;27.00;99.90;;;;;;7286006;32;20931;-57
2023/08/22 13:00:42;;;;;;;6.57;1.45;;;26.80;99.90;;;;;;7291371;32;20214;-56
2023/08/22 13:04:43;;;;;;;6.85;1.30;;;26.60;99.90;;;;;;7289563;32;20203;-57
2023/08/22 13:08:45;;;;;;;4.15;1.08;;;26.30;99.90;;;;;;7295423;32;20120;-56
2023/08/22 13:12:59;;;;;;;2.85;1.10;;;26.10;99.90;;;;;;7296690;32;20130;-56
2023/08/22 13:17:02;;;;;;;3.40;1.02;;;25.90;99.90;;;;;;7299257;32;20124;-56
2023/08/22 13:21:05;;;;;;;4.30;1.23;;;25.70;99.90;;;;;;7289374;32;20605;-58
2023/08/22 13:25:09;;;;;;;4.82;1.40;;;25.40;99.90;;;;;;7290123;32;20136;-59
2023/08/22 13:29:11;;;;;;;5.22;1.48;;;25.40;99.90;;;;;;7292756;32;20266;-58
2023/08/22 13:33:13;;;;;;;4.32;1.30;;;25.30;99.90;;;;;;7288280;32;20277;-58
2023/08/22 13:37:15;;;;;;;13.15;1.62;;;25.10;99.90;;;;;;7270891;32;20823;-59
2023/08/22 13:41:16;;;;;;;2.87;1.00;;;24.90;99.90;;;;;;7272280;32;20238;-58
2023/08/22 13:45:18;;;;;;;6.60;1.48;;;24.80;99.90;;;;;;7273394;32;20223;-58
2023/08/22 13:49:20;;;;;;;4.90;1.50;;;25.20;99.90;;;;;;7272860;32;20958;-58
2023/08/22 13:53:22;;;;;;;7.10;2.03;;;25.40;99.90;;;;;;7244254;32;20152;-57
2023/08/22 13:57:26;;;;;;;7.53;1.75;;;25.30;99.90;;;;;;7290441;32;20257;-58
2023/08/22 14:01:28;;;;;;;5.90;1.52;;;25.30;99.90;;;;;;7298521;32;20166;-59
2023/08/22 14:05:29;;;;;;;5.47;1.80;;;25.50;99.90;;;;;;7296113;32;20222;-58
2023/08/22 14:09:31;;;;;;;5.03;1.40;;;25.80;99.90;;;;;;7298600;32;20100;-57
2023/08/22 14:13:34;;;;;;;7.40;1.55;;;25.70;99.90;;;;;;7289557;32;20173;-58
2023/08/22 14:17:36;;;;;;;6.03;1.52;;;25.50;99.90;;;;;;7290787;32;20112;-58
2023/08/22 14:21:38;;;;;;;5.65;1.42;;;25.60;99.90;;;;;;7294287;32;20134;-59
2023/08/22 14:25:49;;;;;;;9.00;1.95;;;25.90;99.90;;;;;;7294336;32;20104;-58
2023/08/22 14:29:50;;;;;;;8.52;1.90;;;25.60;99.90;;;;;;7293997;32;20138;-58
2023/08/22 14:33:52;;;;;;;7.05;1.98;;;25.60;99.90;;;;;;7295889;32;20132;-59
2023/08/22 14:37:54;;;;;;;4.78;1.83;;;25.50;99.90;;;;;;7288138;32;20127;-57
2023/08/22 14:41:56;;;;;;;5.55;1.55;;;25.40;99.90;;;;;;7292510;32;20261;-58
2023/08/22 14:45:57;;;;;;;5.45;1.62;;;25.50;99.90;;;;;;7285253;32;20271;-57
2023/08/22 14:49:59;;;;;;;4.70;2.03;;;25.40;99.90;;;;;;7289814;32;20175;-59
2023/08/22 14:54:01;;;;;;;6.53;2.60;;;25.80;99.90;;;;;;7292785;32;20246;-56
2023/08/22 14:58:03;;;;;;;10.38;2.03;;;26.20;99.90;;;;;;7291787;32;20103;-57
2023/08/22 15:02:06;;;;;;;6.60;2.15;;;25.80;99.90;;;;;;7289131;32;20116;-58
2023/08/22 15:06:07;;;;;;;7.25;2.17;;;25.80;99.90;;;;;;7292410;32;20206;-58
2023/08/22 15:10:09;;;;;;;5.20;2.08;;;25.60;99.90;;;;;;7292090;32;20312;-57
2023/08/22 15:14:11;;;;;;;5.18;2.05;;;25.30;99.90;;;;;;7283149;32;20168;-58
2023/08/22 15:18:13;;;;;;;5.82;2.42;;;25.10;99.90;;;;;;7298017;32;20782;-58
2023/08/22 15:22:15;;;;;;;7.70;2.80;;;25.10;99.90;;;;;;7290044;32;20225;-58
2023/08/22 15:26:16;;;;;;;7.55;2.20;;;25.00;99.90;;;;;;7288809;32;20624;-59
2023/08/22 15:30:18;;;;;;;5.65;2.40;;;25.00;99.90;;;;;;7289623;32;20747;-58
2023/08/22 15:34:22;;;;;;;5.05;2.37;;;24.80;99.90;;;;;;7289693;32;20458;-58
2023/08/22 15:38:29;;;;;;;4.00;2.03;;;24.80;99.90;;;;;;7266021;32;20889;-58
2023/08/22 15:42:34;;;;;;;6.75;2.85;;;25.00;99.90;;;;;;7252518;32;20107;-58
2023/08/22 15:46:36;;;;;;;4.35;2.05;;;25.00;99.90;;;;;;7289808;32;20139;-58
2023/08/22 15:50:38;;;;;;;6.10;2.40;;;25.10;99.90;;;;;;7289765;32;20171;-58
2023/08/22 15:54:40;;;;;;;3.05;1.90;;;24.90;99.90;;;;;;7254623;32;20496;-58
2023/08/22 15:58:42;;;;;;;5.00;2.25;;;25.00;99.90;;;;;;7293783;32;20116;-60
2023/08/22 16:02:44;;;;;;;9.13;2.72;;;24.80;99.90;;;;;;7289863;32;20112;-60
2023/08/22 16:06:46;;;;;;;8.20;2.90;;;24.80;99.90;;;;;;7285277;32;20104;-58
2023/08/22 16:10:48;;;;;;;8.10;2.35;;;24.70;99.90;;;;;;7285477;32;20542;-58
2023/08/22 16:14:49;;;;;;;7.68;2.42;;;24.70;99.90;;;;;;7289735;32;20115;-58
2023/08/22 16:18:51;;;;;;;7.97;2.20;;;24.70;99.90;;;;;;7295614;32;20545;-58
2023/08/22 16:22:55;;;;;;;6.22;1.90;;;24.40;99.90;;;;;;7279184;32;20206;-58
2023/08/22 16:26:56;;;;;;;6.68;2.00;;;24.40;99.90;;;;;;7289354;32;20176;-58
2023/08/22 16:30:58;;;;;;;5.43;1.80;;;24.20;99.90;;;;;;7281534;32;20175;-59
2023/08/22 16:35:00;;;;;;;4.32;1.85;;;24.10;99.90;;;;;;7287261;32;20127;-57
2023/08/22 16:39:03;;;;;;;6.12;1.70;;;24.10;99.90;;;;;;7296181;32;20138;-58
2023/08/22 16:43:06;;;;;;;3.72;1.65;;;24.10;99.90;;;;;;7284283;32;20246;-58
2023/08/22 16:47:08;;;;;;;4.53;1.95;;;24.00;99.90;;;;;;7291250;32;20253;-58
2023/08/22 16:51:10;;;;;;;6.90;2.03;;;24.00;99.90;;;;;;7285638;32;20514;-58
2023/08/22 16:55:12;;;;;;;3.97;1.60;;;24.10;99.90;;;;;;7274246;32;20534;-58
2023/08/22 16:59:14;;;;;;;2.85;1.50;;;24.00;99.90;;;;;;7238758;32;20138;-59
2023/08/22 17:03:15;;;;;;;4.12;2.12;;;24.00;99.90;;;;;;7227958;32;20253;-59
2023/08/22 17:07:18;;;;;;;3.37;1.70;;;24.10;99.90;;;;;;7250357;32;21293;-58
2023/08/22 17:11:20;;;;;;;4.28;1.55;;;24.00;99.90;;;;;;7292610;32;20165;-58
2023/08/22 17:15:22;;;;;;;3.37;1.58;;;24.00;99.90;;;;;;7296032;32;20204;-58
2023/08/22 17:19:24;;;;;;;4.18;1.70;;;23.90;99.90;;;;;;7298439;32;20150;-57
2023/08/22 17:23:26;;;;;;;4.65;1.60;;;23.50;99.90;;;;;;7291623;32;20152;-57
2023/08/22 17:27:28;;;;;;;8.48;2.47;;;23.50;99.90;;;;;;7295551;32;20131;-57
2023/08/22 17:31:30;;;;;;;5.50;1.50;;;23.30;99.90;;;;;;7289115;32;20199;-57
2023/08/22 17:35:32;;;;;;;4.25;1.58;;;23.10;99.90;;;;;;7296227;32;20124;-58
2023/08/22 17:39:34;;;;;;;2.15;1.50;;;22.90;99.90;;;;;;7230880;32;20647;-57
2023/08/22 17:43:37;;;;;;;2.90;1.50;;;22.70;99.90;;;;;;7259618;32;20131;-58
2023/08/22 17:47:39;;;;;;;8.50;1.77;;;22.70;99.90;;;;;;7273189;32;20247;-57
2023/08/22 17:51:40;;;;;;;4.53;1.60;;;22.60;99.90;;;;;;7298760;32;20112;-57
2023/08/22 17:55:43;;;;;;;6.40;1.55;;;22.40;99.90;;;;;;7299229;32;21360;-57
2023/08/22 17:59:45;;;;;;;4.80;1.90;;;22.30;99.90;;;;;;7297795;32;20261;-57
2023/08/22 18:03:48;;;;;;;6.05;2.00;;;22.10;99.90;;;;;;7300060;32;20521;-56
2023/08/22 18:07:50;;;;;;;5.40;2.15;;;22.10;99.90;;;;;;7299810;32;20108;-57
2023/08/22 18:11:52;;;;;;;5.70;1.70;;;21.90;99.90;;;;;;7301298;32;20108;-57
2023/08/22 18:15:58;;;;;;;3.95;1.85;;;21.60;99.90;;;;;;7295618;32;20238;-57
2023/08/22 18:20:11;;;;;;;5.55;2.12;;;21.40;99.90;;;;;;7255973;32;20113;-56
2023/08/22 18:24:13;;;;;;;6.30;2.20;;;21.30;99.90;;;;;;7250316;32;20225;-57
2023/08/22 18:28:15;;;;;;;10.27;2.35;;;21.10;99.90;;;;;;7291685;32;20221;-56
2023/08/22 18:32:16;;;;;;;8.02;2.50;;;20.80;99.90;;;;;;7289648;32;20185;-57
2023/08/22 18:36:19;;;;;;;8.50;2.47;;;20.60;99.90;;;;;;7293658;32;20104;-58
2023/08/22 18:40:22;;;;;;;8.05;2.37;;;20.40;99.90;;;;;;7285791;32;20421;-56
2023/08/22 18:44:23;;;;;;;4.20;2.30;;;20.20;99.90;;;;;;7292523;32;20593;-57
2023/08/22 18:48:25;;;;;;;5.03;1.83;;;20.10;99.90;;;;;;7289993;32;20166;-56
2023/08/22 18:52:27;;;;;;;8.68;2.97;;;19.90;99.90;;;;;;7291764;32;20112;-57
2023/08/22 18:56:31;;;;;;;3.90;2.08;;;19.80;99.90;;;;;;7291296;32;20586;-58
2023/08/22 19:00:33;;;;;;;10.52;5.03;;;19.60;99.90;;;;;;7289738;32;20608;-57
2023/08/22 19:04:36;;;;;;;7.03;3.70;;;19.40;99.90;;;;;;7288304;32;20203;-57
2023/08/22 19:08:38;;;;;;;6.25;2.87;;;19.20;99.90;;;;;;7297270;32;20123;-57
2023/08/22 19:12:39;;;;;;;5.75;3.75;;;19.10;99.90;;;;;;7296734;32;20191;-57
2023/08/22 19:16:42;;;;;;;5.82;2.70;;;19.00;99.90;;;;;;7287122;32;20266;-57
2023/08/22 19:20:47;;;;;;;9.35;3.00;;;18.90;99.90;;;;;;7274063;32;20122;-56
2023/08/22 19:24:49;;;;;;;11.52;2.58;;;18.60;99.90;;;;;;7288668;32;20138;-56
2023/08/22 19:28:52;;;;;;;7.18;2.83;;;18.50;99.90;;;;;;7289204;32;20585;-56
2023/08/22 19:32:53;;;;;;;8.38;3.08;;;18.40;99.90;;;;;;7293449;32;20132;-56
2023/08/22 19:37:15;;;;;;;8.70;3.20;;;18.30;99.90;;;;;;7285739;32;20265;-55
2023/08/22 19:41:17;;;;;;;8.73;3.00;;;18.10;99.90;;;;;;7289435;32;20569;-56
2023/08/22 19:45:19;;;;;;;6.78;2.65;;;18.00;99.90;;;;;;7292908;32;20776;-56
2023/08/22 19:49:20;;;;;;;5.30;2.97;;;17.80;99.90;;;;;;7293285;32;20309;-56
2023/08/22 19:53:22;;;;;;;6.43;2.53;;;17.70;99.90;;;;;;7296668;32;20111;-56
2023/08/22 19:57:24;;;;;;;7.80;2.87;;;17.70;99.90;;;;;;7293303;32;20120;-56
2023/08/22 20:01:27;;;;;;;12.82;3.10;;;17.60;99.90;;;;;;7294939;32;20207;-56
2023/08/22 20:05:31;;;;;;;9.52;2.75;;;17.50;99.90;;;;;;7286962;32;20600;-56
2023/08/22 20:09:35;;;;;;;7.85;2.78;;;17.40;99.90;;;;;;7290175;32;20171;-55
2023/08/22 20:13:37;;;;;;;9.45;3.33;;;17.30;99.90;;;;;;7286421;32;20182;-55
2023/08/22 20:17:38;;;;;;;7.97;2.87;;;17.20;99.90;;;;;;7287045;32;20127;-56
2023/08/22 20:21:40;;;;;;;4.68;2.45;;;17.10;99.90;;;;;;7288017;32;20116;-56
2023/08/22 20:25:42;;;;;;;6.65;4.05;;;17.10;99.90;;;;;;7223423;32;20447;-56
2023/08/22 20:29:44;;;;;;;8.57;3.00;;;17.00;99.90;;;;;;7293397;32;20120;-56
2023/08/22 20:33:45;;;;;;;5.43;3.03;;;16.90;99.90;;;;;;7299242;32;20482;-55
2023/08/22 20:37:48;;;;;;;6.20;3.03;;;16.80;99.90;;;;;;7287366;32;20108;-56
2023/08/22 20:41:49;;;;;;;6.00;3.35;;;16.70;99.90;;;;;;7287583;32;20270;-56
2023/08/22 20:45:51;;;;;;;6.90;2.65;;;16.60;99.90;;;;;;7292432;32;20277;-55
2023/08/22 20:49:56;;;;;;;5.95;2.95;;;16.60;99.90;;;;;;7292225;32;20249;-55
2023/08/22 20:53:57;;;;;;;7.03;2.97;;;16.50;99.90;;;;;;7293114;32;20125;-55
2023/08/22 20:57:59;;;;;;;6.85;3.30;;;16.50;99.90;;;;;;7285660;32;20111;-56
2023/08/22 21:02:01;;;;;;;6.32;2.78;;;16.40;99.90;;;;;;7291804;32;20138;-55